sensor_id;sensor_type;location;lat;lon;timestamp;pressure;altitude;pressure_sealevel;temperature
11240;BMP180;5677;48.488;13.436;2022-07-15T00:01:35;97845.00;;;21.60
11240;BMP180;5677;48.488;13.436;2022-07-15T00:04:02;97827.00;;;21.60
11240;BMP180;5677;48.488;13.436;2022-07-15T00:06:30;97819.00;;;21.50
11240;BMP180;5677;48.488;13.436;2022-07-15T00:08:58;97817.00;;;21.50
11240;BMP180;5677;48.488;13.436;2022-07-15T00:11:25;97817.00;;;21.50
11240;BMP180;5677;48.488;13.436;2022-07-15T00:13:52;97816.00;;;21.50
11240;BMP180;5677;48.488;13.436;2022-07-15T00:16:19;97825.00;;;21.50
11240;BMP180;5677;48.488;13.436;2022-07-15T00:18:46;97837.00;;;21.50
11240;BMP180;5677;48.488;13.436;2022-07-15T00:21:14;97851.00;;;21.50
11240;BMP180;5677;48.488;13.436;2022-07-15T00:23:41;97859.00;;;21.50
11240;BMP180;5677;48.488;13.436;2022-07-15T00:26:10;97875.00;;;21.50
11240;BMP180;5677;48.488;13.436;2022-07-15T00:28:37;97873.00;;;21.50
11240;BMP180;5677;48.488;13.436;2022-07-15T00:31:04;97859.00;;;21.50
11240;BMP180;5677;48.488;13.436;2022-07-15T00:33:31;97850.00;;;21.50
11240;BMP180;5677;48.488;13.436;2022-07-15T00:35:58;97864.00;;;21.50
11240;BMP180;5677;48.488;13.436;2022-07-15T00:38:25;97876.00;;;21.50
11240;BMP180;5677;48.488;13.436;2022-07-15T00:40:52;97907.00;;;21.50
11240;BMP180;5677;48.488;13.436;2022-07-15T00:43:20;97928.00;;;21.50
11240;BMP180;5677;48.488;13.436;2022-07-15T00:45:47;97925.00;;;21.50
11240;BMP180;5677;48.488;13.436;2022-07-15T00:48:14;97921.00;;;21.50
11240;BMP180;5677;48.488;13.436;2022-07-15T00:50:41;97905.00;;;21.50
11240;BMP180;5677;48.488;13.436;2022-07-15T00:53:16;97898.00;;;21.50
11240;BMP180;5677;48.488;13.436;2022-07-15T00:55:45;97908.00;;;21.50
11240;BMP180;5677;48.488;13.436;2022-07-15T00:58:17;97919.00;;;21.50
11240;BMP180;5677;48.488;13.436;2022-07-15T01:00:48;97943.00;;;21.50
11240;BMP180;5677;48.488;13.436;2022-07-15T01:03:17;97942.00;;;21.50
11240;BMP180;5677;48.488;13.436;2022-07-15T01:05:47;97922.00;;;21.50
11240;BMP180;5677;48.488;13.436;2022-07-15T01:08:15;97929.00;;;21.50
11240;BMP180;5677;48.488;13.436;2022-07-15T01:10:43;97920.00;;;21.50
11240;BMP180;5677;48.488;13.436;2022-07-15T01:13:11;97916.00;;;21.50
11240;BMP180;5677;48.488;13.436;2022-07-15T01:15:38;97932.00;;;21.50
11240;BMP180;5677;48.488;13.436;2022-07-15T01:18:06;97940.00;;;21.50
11240;BMP180;5677;48.488;13.436;2022-07-15T01:20:33;97948.00;;;21.50
11240;BMP180;5677;48.488;13.436;2022-07-15T01:23:02;97944.00;;;21.50
11240;BMP180;5677;48.488;13.436;2022-07-15T01:25:29;97937.00;;;21.50
11240;BMP180;5677;48.488;13.436;2022-07-15T01:27:56;97941.00;;;21.50
11240;BMP180;5677;48.488;13.436;2022-07-15T01:30:23;97929.00;;;21.50
11240;BMP180;5677;48.488;13.436;2022-07-15T01:32:50;97930.00;;;21.50
11240;BMP180;5677;48.488;13.436;2022-07-15T01:35:17;97930.00;;;21.40
11240;BMP180;5677;48.488;13.436;2022-07-15T01:37:45;97940.00;;;21.40
11240;BMP180;5677;48.488;13.436;2022-07-15T01:40:13;97946.00;;;21.50
11240;BMP180;5677;48.488;13.436;2022-07-15T01:42:40;97944.00;;;21.40
11240;BMP180;5677;48.488;13.436;2022-07-15T01:45:09;97940.00;;;21.50
11240;BMP180;5677;48.488;13.436;2022-07-15T01:47:42;97941.00;;;21.40
11240;BMP180;5677;48.488;13.436;2022-07-15T01:50:10;97927.00;;;21.40
11240;BMP180;5677;48.488;13.436;2022-07-15T01:52:36;97935.00;;;21.40
11240;BMP180;5677;48.488;13.436;2022-07-15T01:55:05;97938.00;;;21.40
11240;BMP180;5677;48.488;13.436;2022-07-15T01:57:35;97946.00;;;21.40
11240;BMP180;5677;48.488;13.436;2022-07-15T02:00:04;97951.00;;;21.40
11240;BMP180;5677;48.488;13.436;2022-07-15T02:02:31;97947.00;;;21.40
11240;BMP180;5677;48.488;13.436;2022-07-15T02:04:59;97949.00;;;21.40
11240;BMP180;5677;48.488;13.436;2022-07-15T02:07:25;97942.00;;;21.40
11240;BMP180;5677;48.488;13.436;2022-07-15T02:09:52;97949.00;;;21.40
11240;BMP180;5677;48.488;13.436;2022-07-15T02:12:19;97950.00;;;21.40
11240;BMP180;5677;48.488;13.436;2022-07-15T02:14:48;97942.00;;;21.40
11240;BMP180;5677;48.488;13.436;2022-07-15T02:17:15;97935.00;;;21.40
11240;BMP180;5677;48.488;13.436;2022-07-15T02:19:41;97940.00;;;21.40
11240;BMP180;5677;48.488;13.436;2022-07-15T02:22:08;97940.00;;;21.40
11240;BMP180;5677;48.488;13.436;2022-07-15T02:24:35;97948.00;;;21.40
11240;BMP180;5677;48.488;13.436;2022-07-15T02:27:02;97960.00;;;21.40
11240;BMP180;5677;48.488;13.436;2022-07-15T02:29:29;97956.00;;;21.40
11240;BMP180;5677;48.488;13.436;2022-07-15T02:31:58;97954.00;;;21.40
11240;BMP180;5677;48.488;13.436;2022-07-15T02:34:25;97957.00;;;21.40
11240;BMP180;5677;48.488;13.436;2022-07-15T02:36:52;97954.00;;;21.40
11240;BMP180;5677;48.488;13.436;2022-07-15T02:39:19;97954.00;;;21.40
11240;BMP180;5677;48.488;13.436;2022-07-15T02:41:45;97962.00;;;21.40
11240;BMP180;5677;48.488;13.436;2022-07-15T02:44:13;97970.00;;;21.40
11240;BMP180;5677;48.488;13.436;2022-07-15T02:46:40;97978.00;;;21.40
11240;BMP180;5677;48.488;13.436;2022-07-15T02:49:09;97977.00;;;21.40
11240;BMP180;5677;48.488;13.436;2022-07-15T02:51:36;97974.00;;;21.40
11240;BMP180;5677;48.488;13.436;2022-07-15T02:54:03;97973.00;;;21.40
11240;BMP180;5677;48.488;13.436;2022-07-15T02:56:30;97973.00;;;21.40
11240;BMP180;5677;48.488;13.436;2022-07-15T02:58:57;97980.00;;;21.40
11240;BMP180;5677;48.488;13.436;2022-07-15T03:01:24;97978.00;;;21.40
11240;BMP180;5677;48.488;13.436;2022-07-15T03:03:51;97975.00;;;21.40
11240;BMP180;5677;48.488;13.436;2022-07-15T03:06:21;97986.00;;;21.40
11240;BMP180;5677;48.488;13.436;2022-07-15T03:08:48;97987.00;;;21.40
11240;BMP180;5677;48.488;13.436;2022-07-15T03:11:15;97978.00;;;21.40
11240;BMP180;5677;48.488;13.436;2022-07-15T03:13:42;97981.00;;;21.40
11240;BMP180;5677;48.488;13.436;2022-07-15T03:16:09;97978.00;;;21.40
11240;BMP180;5677;48.488;13.436;2022-07-15T03:18:36;97984.00;;;21.40
11240;BMP180;5677;48.488;13.436;2022-07-15T03:21:03;97989.00;;;21.40
11240;BMP180;5677;48.488;13.436;2022-07-15T03:23:32;97986.00;;;21.40
11240;BMP180;5677;48.488;13.436;2022-07-15T03:25:59;97986.00;;;21.40
11240;BMP180;5677;48.488;13.436;2022-07-15T03:28:26;97985.00;;;21.40
11240;BMP180;5677;48.488;13.436;2022-07-15T03:30:53;97988.00;;;21.40
11240;BMP180;5677;48.488;13.436;2022-07-15T03:33:20;97989.00;;;21.30
11240;BMP180;5677;48.488;13.436;2022-07-15T03:35:47;97987.00;;;21.30
11240;BMP180;5677;48.488;13.436;2022-07-15T03:38:14;97987.00;;;21.40
11240;BMP180;5677;48.488;13.436;2022-07-15T03:40:42;97986.00;;;21.30
11240;BMP180;5677;48.488;13.436;2022-07-15T03:43:09;97991.00;;;21.30
11240;BMP180;5677;48.488;13.436;2022-07-15T03:45:36;97995.00;;;21.30
11240;BMP180;5677;48.488;13.436;2022-07-15T03:48:04;97994.00;;;21.30
11240;BMP180;5677;48.488;13.436;2022-07-15T03:50:31;97997.00;;;21.30
11240;BMP180;5677;48.488;13.436;2022-07-15T03:52:58;98006.00;;;21.30
11240;BMP180;5677;48.488;13.436;2022-07-15T03:55:25;98000.00;;;21.30
11240;BMP180;5677;48.488;13.436;2022-07-15T03:57:53;98001.00;;;21.40
11240;BMP180;5677;48.488;13.436;2022-07-15T04:00:21;98008.00;;;21.30
11240;BMP180;5677;48.488;13.436;2022-07-15T04:02:48;98000.00;;;21.30
11240;BMP180;5677;48.488;13.436;2022-07-15T04:05:15;98009.00;;;21.30
11240;BMP180;5677;48.488;13.436;2022-07-15T04:07:42;98016.00;;;21.30
11240;BMP180;5677;48.488;13.436;2022-07-15T04:10:09;98011.00;;;21.30
11240;BMP180;5677;48.488;13.436;2022-07-15T04:12:36;98016.00;;;21.30
11240;BMP180;5677;48.488;13.436;2022-07-15T04:15:06;98018.00;;;21.30
11240;BMP180;5677;48.488;13.436;2022-07-15T04:17:34;98018.00;;;21.30
11240;BMP180;5677;48.488;13.436;2022-07-15T04:20:01;98024.00;;;21.30
11240;BMP180;5677;48.488;13.436;2022-07-15T04:22:29;98018.00;;;21.30
11240;BMP180;5677;48.488;13.436;2022-07-15T04:24:56;98021.00;;;21.30
11240;BMP180;5677;48.488;13.436;2022-07-15T04:27:23;98017.00;;;21.30
11240;BMP180;5677;48.488;13.436;2022-07-15T04:29:50;98023.00;;;21.30
11240;BMP180;5677;48.488;13.436;2022-07-15T04:32:18;98029.00;;;21.30
11240;BMP180;5677;48.488;13.436;2022-07-15T04:34:45;98026.00;;;21.30
11240;BMP180;5677;48.488;13.436;2022-07-15T04:37:12;98025.00;;;21.30
11240;BMP180;5677;48.488;13.436;2022-07-15T04:39:39;98024.00;;;21.30
11240;BMP180;5677;48.488;13.436;2022-07-15T04:42:06;98028.00;;;21.30
11240;BMP180;5677;48.488;13.436;2022-07-15T04:44:33;98035.00;;;21.30
11240;BMP180;5677;48.488;13.436;2022-07-15T04:47:00;98034.00;;;21.30
11240;BMP180;5677;48.488;13.436;2022-07-15T04:49:30;98037.00;;;21.30
11240;BMP180;5677;48.488;13.436;2022-07-15T04:52:15;98037.00;;;21.30
11240;BMP180;5677;48.488;13.436;2022-07-15T04:54:42;98037.00;;;21.30
11240;BMP180;5677;48.488;13.436;2022-07-15T04:57:09;98040.00;;;21.30
11240;BMP180;5677;48.488;13.436;2022-07-15T04:59:37;98038.00;;;21.30
11240;BMP180;5677;48.488;13.436;2022-07-15T05:02:04;98041.00;;;21.30
11240;BMP180;5677;48.488;13.436;2022-07-15T05:04:32;98043.00;;;21.30
11240;BMP180;5677;48.488;13.436;2022-07-15T05:06:59;98047.00;;;21.30
11240;BMP180;5677;48.488;13.436;2022-07-15T05:09:26;98047.00;;;21.30
11240;BMP180;5677;48.488;13.436;2022-07-15T05:11:54;98046.00;;;21.30
11240;BMP180;5677;48.488;13.436;2022-07-15T05:14:20;98050.00;;;21.30
11240;BMP180;5677;48.488;13.436;2022-07-15T05:16:47;98045.00;;;21.30
11240;BMP180;5677;48.488;13.436;2022-07-15T05:19:14;98048.00;;;21.30
11240;BMP180;5677;48.488;13.436;2022-07-15T05:21:43;98048.00;;;21.30
11240;BMP180;5677;48.488;13.436;2022-07-15T05:24:10;98051.00;;;21.30
11240;BMP180;5677;48.488;13.436;2022-07-15T05:26:37;98050.00;;;21.30
11240;BMP180;5677;48.488;13.436;2022-07-15T05:29:03;98057.00;;;21.30
11240;BMP180;5677;48.488;13.436;2022-07-15T05:31:31;98056.00;;;21.30
11240;BMP180;5677;48.488;13.436;2022-07-15T05:33:57;98061.00;;;21.30
11240;BMP180;5677;48.488;13.436;2022-07-15T05:36:24;98059.00;;;21.30
11240;BMP180;5677;48.488;13.436;2022-07-15T05:38:53;98062.00;;;21.30
11240;BMP180;5677;48.488;13.436;2022-07-15T05:41:20;98062.00;;;21.30
11240;BMP180;5677;48.488;13.436;2022-07-15T05:43:47;98065.00;;;21.30
11240;BMP180;5677;48.488;13.436;2022-07-15T05:46:14;98064.00;;;21.30
11240;BMP180;5677;48.488;13.436;2022-07-15T05:48:41;98067.00;;;21.30
11240;BMP180;5677;48.488;13.436;2022-07-15T05:51:08;98071.00;;;21.30
11240;BMP180;5677;48.488;13.436;2022-07-15T05:53:35;98071.00;;;21.40
11240;BMP180;5677;48.488;13.436;2022-07-15T05:56:04;98082.00;;;21.40
11240;BMP180;5677;48.488;13.436;2022-07-15T05:58:31;98092.00;;;21.40
11240;BMP180;5677;48.488;13.436;2022-07-15T06:00:58;98093.00;;;21.40
11240;BMP180;5677;48.488;13.436;2022-07-15T06:03:25;98095.00;;;21.40
11240;BMP180;5677;48.488;13.436;2022-07-15T06:05:52;98101.00;;;21.40
11240;BMP180;5677;48.488;13.436;2022-07-15T06:08:19;98099.00;;;21.40
11240;BMP180;5677;48.488;13.436;2022-07-15T06:10:47;98095.00;;;21.40
11240;BMP180;5677;48.488;13.436;2022-07-15T06:13:15;98094.00;;;21.40
11240;BMP180;5677;48.488;13.436;2022-07-15T06:15:42;98102.00;;;21.40
11240;BMP180;5677;48.488;13.436;2022-07-15T06:18:09;98101.00;;;21.40
11240;BMP180;5677;48.488;13.436;2022-07-15T06:20:36;98108.00;;;21.40
11240;BMP180;5677;48.488;13.436;2022-07-15T06:23:03;98096.00;;;21.40
11240;BMP180;5677;48.488;13.436;2022-07-15T06:25:30;98102.00;;;21.40
11240;BMP180;5677;48.488;13.436;2022-07-15T06:27:57;98095.00;;;21.50
11240;BMP180;5677;48.488;13.436;2022-07-15T06:30:26;98098.00;;;21.50
11240;BMP180;5677;48.488;13.436;2022-07-15T06:32:53;98097.00;;;21.50
11240;BMP180;5677;48.488;13.436;2022-07-15T06:35:20;98099.00;;;21.50
11240;BMP180;5677;48.488;13.436;2022-07-15T06:37:47;98098.00;;;21.50
11240;BMP180;5677;48.488;13.436;2022-07-15T06:40:14;98102.00;;;21.50
11240;BMP180;5677;48.488;13.436;2022-07-15T06:42:41;98104.00;;;21.50
11240;BMP180;5677;48.488;13.436;2022-07-15T06:45:10;98111.00;;;21.50
11240;BMP180;5677;48.488;13.436;2022-07-15T06:47:40;98104.00;;;21.50
11240;BMP180;5677;48.488;13.436;2022-07-15T06:50:09;98112.00;;;21.60
11240;BMP180;5677;48.488;13.436;2022-07-15T06:52:36;98114.00;;;21.60
11240;BMP180;5677;48.488;13.436;2022-07-15T06:55:05;98110.00;;;21.60
11240;BMP180;5677;48.488;13.436;2022-07-15T06:57:32;98115.00;;;21.60
11240;BMP180;5677;48.488;13.436;2022-07-15T07:00:00;98108.00;;;21.60
11240;BMP180;5677;48.488;13.436;2022-07-15T07:02:27;98114.00;;;21.60
11240;BMP180;5677;48.488;13.436;2022-07-15T07:04:56;98118.00;;;21.60
11240;BMP180;5677;48.488;13.436;2022-07-15T07:07:22;98121.00;;;21.70
11240;BMP180;5677;48.488;13.436;2022-07-15T07:09:49;98117.00;;;21.70
11240;BMP180;5677;48.488;13.436;2022-07-15T07:12:16;98119.00;;;21.70
11240;BMP180;5677;48.488;13.436;2022-07-15T07:14:43;98125.00;;;21.70
11240;BMP180;5677;48.488;13.436;2022-07-15T07:17:10;98124.00;;;21.70
11240;BMP180;5677;48.488;13.436;2022-07-15T07:19:37;98126.00;;;21.70
11240;BMP180;5677;48.488;13.436;2022-07-15T07:22:06;98124.00;;;21.70
11240;BMP180;5677;48.488;13.436;2022-07-15T07:24:33;98134.00;;;21.70
11240;BMP180;5677;48.488;13.436;2022-07-15T07:27:00;98130.00;;;21.70
11240;BMP180;5677;48.488;13.436;2022-07-15T07:29:27;98134.00;;;21.80
11240;BMP180;5677;48.488;13.436;2022-07-15T07:31:54;98123.00;;;21.80
11240;BMP180;5677;48.488;13.436;2022-07-15T07:34:22;98122.00;;;21.80
11240;BMP180;5677;48.488;13.436;2022-07-15T07:36:49;98126.00;;;21.80
11240;BMP180;5677;48.488;13.436;2022-07-15T07:39:17;98126.00;;;21.80
11240;BMP180;5677;48.488;13.436;2022-07-15T07:41:44;98125.00;;;21.80
11240;BMP180;5677;48.488;13.436;2022-07-15T07:44:11;98127.00;;;21.80
11240;BMP180;5677;48.488;13.436;2022-07-15T07:46:38;98124.00;;;21.80
11240;BMP180;5677;48.488;13.436;2022-07-15T07:49:05;98127.00;;;21.80
11240;BMP180;5677;48.488;13.436;2022-07-15T07:51:33;98124.00;;;21.80
11240;BMP180;5677;48.488;13.436;2022-07-15T07:54:00;98125.00;;;21.80
11240;BMP180;5677;48.488;13.436;2022-07-15T07:56:28;98118.00;;;21.80
11240;BMP180;5677;48.488;13.436;2022-07-15T07:58:55;98116.00;;;21.80
11240;BMP180;5677;48.488;13.436;2022-07-15T08:01:22;98107.00;;;21.80
11240;BMP180;5677;48.488;13.436;2022-07-15T08:03:49;98106.00;;;21.80
11240;BMP180;5677;48.488;13.436;2022-07-15T08:06:16;98109.00;;;21.80
11240;BMP180;5677;48.488;13.436;2022-07-15T08:08:43;98105.00;;;21.80
11240;BMP180;5677;48.488;13.436;2022-07-15T08:11:10;98106.00;;;21.80
11240;BMP180;5677;48.488;13.436;2022-07-15T08:13:39;98102.00;;;21.90
11240;BMP180;5677;48.488;13.436;2022-07-15T08:16:07;98106.00;;;21.80
11240;BMP180;5677;48.488;13.436;2022-07-15T08:18:34;98103.00;;;21.80
11240;BMP180;5677;48.488;13.436;2022-07-15T08:21:00;98104.00;;;21.90
11240;BMP180;5677;48.488;13.436;2022-07-15T08:23:29;98090.00;;;21.90
11240;BMP180;5677;48.488;13.436;2022-07-15T08:25:59;98096.00;;;21.90
11240;BMP180;5677;48.488;13.436;2022-07-15T08:28:26;98096.00;;;21.90
11240;BMP180;5677;48.488;13.436;2022-07-15T08:30:54;98098.00;;;21.90
11240;BMP180;5677;48.488;13.436;2022-07-15T08:33:21;98103.00;;;21.90
11240;BMP180;5677;48.488;13.436;2022-07-15T08:35:48;98099.00;;;21.90
11240;BMP180;5677;48.488;13.436;2022-07-15T08:38:16;98101.00;;;21.90
11240;BMP180;5677;48.488;13.436;2022-07-15T08:40:43;98100.00;;;21.90
11240;BMP180;5677;48.488;13.436;2022-07-15T08:43:11;98096.00;;;21.90
11240;BMP180;5677;48.488;13.436;2022-07-15T08:45:40;98103.00;;;21.90
11240;BMP180;5677;48.488;13.436;2022-07-15T08:48:11;98100.00;;;21.90
11240;BMP180;5677;48.488;13.436;2022-07-15T08:50:42;98104.00;;;21.90
11240;BMP180;5677;48.488;13.436;2022-07-15T08:53:09;98108.00;;;21.90
11240;BMP180;5677;48.488;13.436;2022-07-15T08:55:36;98101.00;;;21.90
11240;BMP180;5677;48.488;13.436;2022-07-15T08:58:03;98101.00;;;21.90
11240;BMP180;5677;48.488;13.436;2022-07-15T09:00:30;98104.00;;;21.90
11240;BMP180;5677;48.488;13.436;2022-07-15T09:02:59;98099.00;;;21.90
11240;BMP180;5677;48.488;13.436;2022-07-15T09:05:31;98097.00;;;21.90
11240;BMP180;5677;48.488;13.436;2022-07-15T09:08:04;98098.00;;;21.90
11240;BMP180;5677;48.488;13.436;2022-07-15T09:10:48;98094.00;;;21.90
11240;BMP180;5677;48.488;13.436;2022-07-15T09:13:26;98095.00;;;21.90
11240;BMP180;5677;48.488;13.436;2022-07-15T09:15:56;98094.00;;;21.90
11240;BMP180;5677;48.488;13.436;2022-07-15T09:18:25;98093.00;;;21.90
11240;BMP180;5677;48.488;13.436;2022-07-15T09:20:54;98089.00;;;21.90
11240;BMP180;5677;48.488;13.436;2022-07-15T09:23:25;98094.00;;;21.90
11240;BMP180;5677;48.488;13.436;2022-07-15T09:25:58;98093.00;;;21.90
11240;BMP180;5677;48.488;13.436;2022-07-15T09:28:39;98092.00;;;21.90
11240;BMP180;5677;48.488;13.436;2022-07-15T09:31:06;98093.00;;;21.90
11240;BMP180;5677;48.488;13.436;2022-07-15T09:33:58;98087.00;;;21.90
11240;BMP180;5677;48.488;13.436;2022-07-15T09:36:30;98089.00;;;21.90
11240;BMP180;5677;48.488;13.436;2022-07-15T09:38:59;98090.00;;;21.90
11240;BMP180;5677;48.488;13.436;2022-07-15T09:41:30;98089.00;;;21.90
11240;BMP180;5677;48.488;13.436;2022-07-15T09:44:02;98086.00;;;22.00
11240;BMP180;5677;48.488;13.436;2022-07-15T09:46:42;98096.00;;;22.00
11240;BMP180;5677;48.488;13.436;2022-07-15T09:49:10;98096.00;;;21.90
11240;BMP180;5677;48.488;13.436;2022-07-15T09:51:49;98091.00;;;22.00
11240;BMP180;5677;48.488;13.436;2022-07-15T09:54:17;98086.00;;;22.00
11240;BMP180;5677;48.488;13.436;2022-07-15T09:56:45;98079.00;;;22.00
11240;BMP180;5677;48.488;13.436;2022-07-15T09:59:13;98081.00;;;22.00
11240;BMP180;5677;48.488;13.436;2022-07-15T10:01:42;98080.00;;;22.00
11240;BMP180;5677;48.488;13.436;2022-07-15T10:04:10;98078.00;;;22.00
11240;BMP180;5677;48.488;13.436;2022-07-15T10:06:38;98077.00;;;22.00
11240;BMP180;5677;48.488;13.436;2022-07-15T10:09:07;98082.00;;;22.00
11240;BMP180;5677;48.488;13.436;2022-07-15T10:11:40;98088.00;;;22.00
11240;BMP180;5677;48.488;13.436;2022-07-15T10:14:44;98076.00;;;22.00
11240;BMP180;5677;48.488;13.436;2022-07-15T10:17:41;98080.00;;;22.00
11240;BMP180;5677;48.488;13.436;2022-07-15T10:20:54;98074.00;;;22.00
11240;BMP180;5677;48.488;13.436;2022-07-15T10:23:50;98074.00;;;22.00
11240;BMP180;5677;48.488;13.436;2022-07-15T10:26:43;98074.00;;;22.00
11240;BMP180;5677;48.488;13.436;2022-07-15T10:29:15;98064.00;;;22.00
11240;BMP180;5677;48.488;13.436;2022-07-15T10:31:44;98075.00;;;22.00
11240;BMP180;5677;48.488;13.436;2022-07-15T10:34:21;98071.00;;;22.00
11240;BMP180;5677;48.488;13.436;2022-07-15T10:37:00;98065.00;;;22.00
11240;BMP180;5677;48.488;13.436;2022-07-15T10:39:48;98067.00;;;22.00
11240;BMP180;5677;48.488;13.436;2022-07-15T10:42:18;98069.00;;;22.00
11240;BMP180;5677;48.488;13.436;2022-07-15T10:45:16;98059.00;;;22.00
11240;BMP180;5677;48.488;13.436;2022-07-15T10:47:44;98060.00;;;22.00
11240;BMP180;5677;48.488;13.436;2022-07-15T10:50:38;98058.00;;;22.00
11240;BMP180;5677;48.488;13.436;2022-07-15T10:53:18;98055.00;;;22.00
11240;BMP180;5677;48.488;13.436;2022-07-15T10:55:45;98059.00;;;22.00
11240;BMP180;5677;48.488;13.436;2022-07-15T10:58:15;98057.00;;;22.00
11240;BMP180;5677;48.488;13.436;2022-07-15T11:00:44;98052.00;;;22.00
11240;BMP180;5677;48.488;13.436;2022-07-15T11:03:14;98050.00;;;22.00
11240;BMP180;5677;48.488;13.436;2022-07-15T11:06:03;98055.00;;;22.00
11240;BMP180;5677;48.488;13.436;2022-07-15T11:08:49;98052.00;;;22.00
11240;BMP180;5677;48.488;13.436;2022-07-15T11:11:48;98050.00;;;22.10
11240;BMP180;5677;48.488;13.436;2022-07-15T11:14:50;98053.00;;;22.10
11240;BMP180;5677;48.488;13.436;2022-07-15T11:17:24;98049.00;;;22.10
11240;BMP180;5677;48.488;13.436;2022-07-15T11:19:55;98049.00;;;22.10
11240;BMP180;5677;48.488;13.436;2022-07-15T11:22:25;98036.00;;;22.10
11240;BMP180;5677;48.488;13.436;2022-07-15T11:24:53;98044.00;;;22.10
11240;BMP180;5677;48.488;13.436;2022-07-15T11:27:22;98032.00;;;22.10
11240;BMP180;5677;48.488;13.436;2022-07-15T11:29:53;98035.00;;;22.10
11240;BMP180;5677;48.488;13.436;2022-07-15T11:32:25;98036.00;;;22.10
11240;BMP180;5677;48.488;13.436;2022-07-15T11:34:55;98038.00;;;22.10
11240;BMP180;5677;48.488;13.436;2022-07-15T11:37:24;98038.00;;;22.10
11240;BMP180;5677;48.488;13.436;2022-07-15T11:40:09;98038.00;;;22.10
11240;BMP180;5677;48.488;13.436;2022-07-15T11:42:37;98033.00;;;22.10
11240;BMP180;5677;48.488;13.436;2022-07-15T11:45:36;98036.00;;;22.10
11240;BMP180;5677;48.488;13.436;2022-07-15T11:48:05;98035.00;;;22.10
11240;BMP180;5677;48.488;13.436;2022-07-15T11:50:34;98037.00;;;22.10
11240;BMP180;5677;48.488;13.436;2022-07-15T11:53:10;98024.00;;;22.10
11240;BMP180;5677;48.488;13.436;2022-07-15T11:55:51;98031.00;;;22.10
11240;BMP180;5677;48.488;13.436;2022-07-15T11:58:30;98036.00;;;22.10
11240;BMP180;5677;48.488;13.436;2022-07-15T12:01:00;98033.00;;;22.10
11240;BMP180;5677;48.488;13.436;2022-07-15T12:03:33;98023.00;;;22.10
11240;BMP180;5677;48.488;13.436;2022-07-15T12:06:08;98021.00;;;22.10
11240;BMP180;5677;48.488;13.436;2022-07-15T12:08:39;98015.00;;;22.10
11240;BMP180;5677;48.488;13.436;2022-07-15T12:11:15;98014.00;;;22.10
11240;BMP180;5677;48.488;13.436;2022-07-15T12:13:50;98025.00;;;22.10
11240;BMP180;5677;48.488;13.436;2022-07-15T12:16:26;98023.00;;;22.10
11240;BMP180;5677;48.488;13.436;2022-07-15T12:18:56;98011.00;;;22.10
11240;BMP180;5677;48.488;13.436;2022-07-15T12:21:25;98009.00;;;22.10
11240;BMP180;5677;48.488;13.436;2022-07-15T12:24:03;98012.00;;;22.10
11240;BMP180;5677;48.488;13.436;2022-07-15T12:26:32;98006.00;;;22.10
11240;BMP180;5677;48.488;13.436;2022-07-15T12:29:02;98006.00;;;22.10
11240;BMP180;5677;48.488;13.436;2022-07-15T12:31:33;98006.00;;;22.10
11240;BMP180;5677;48.488;13.436;2022-07-15T12:34:01;98018.00;;;22.10
11240;BMP180;5677;48.488;13.436;2022-07-15T12:36:30;98008.00;;;22.20
11240;BMP180;5677;48.488;13.436;2022-07-15T12:39:18;98014.00;;;22.20
11240;BMP180;5677;48.488;13.436;2022-07-15T12:41:59;98009.00;;;22.20
11240;BMP180;5677;48.488;13.436;2022-07-15T12:44:26;98007.00;;;22.20
11240;BMP180;5677;48.488;13.436;2022-07-15T12:46:59;98001.00;;;22.20
11240;BMP180;5677;48.488;13.436;2022-07-15T12:49:48;97991.00;;;22.20
11240;BMP180;5677;48.488;13.436;2022-07-15T12:52:23;97991.00;;;22.20
11240;BMP180;5677;48.488;13.436;2022-07-15T12:54:54;97993.00;;;22.20
11240;BMP180;5677;48.488;13.436;2022-07-15T12:57:27;97989.00;;;22.20
11240;BMP180;5677;48.488;13.436;2022-07-15T12:59:56;97994.00;;;22.20
11240;BMP180;5677;48.488;13.436;2022-07-15T13:02:26;97988.00;;;22.20
11240;BMP180;5677;48.488;13.436;2022-07-15T13:04:53;97986.00;;;22.20
11240;BMP180;5677;48.488;13.436;2022-07-15T13:07:20;97976.00;;;22.20
11240;BMP180;5677;48.488;13.436;2022-07-15T13:09:47;97978.00;;;22.20
11240;BMP180;5677;48.488;13.436;2022-07-15T13:12:15;97974.00;;;22.20
11240;BMP180;5677;48.488;13.436;2022-07-15T13:14:42;97975.00;;;22.20
11240;BMP180;5677;48.488;13.436;2022-07-15T13:17:11;97980.00;;;22.20
11240;BMP180;5677;48.488;13.436;2022-07-15T13:19:39;97976.00;;;22.20
11240;BMP180;5677;48.488;13.436;2022-07-15T13:22:06;97975.00;;;22.20
11240;BMP180;5677;48.488;13.436;2022-07-15T13:24:33;97970.00;;;22.20
11240;BMP180;5677;48.488;13.436;2022-07-15T13:27:00;97965.00;;;22.20
11240;BMP180;5677;48.488;13.436;2022-07-15T13:29:27;97966.00;;;22.20
11240;BMP180;5677;48.488;13.436;2022-07-15T13:31:54;97967.00;;;22.20
11240;BMP180;5677;48.488;13.436;2022-07-15T13:34:21;97960.00;;;22.20
11240;BMP180;5677;48.488;13.436;2022-07-15T13:36:49;97964.00;;;22.20
11240;BMP180;5677;48.488;13.436;2022-07-15T13:39:16;97959.00;;;22.20
11240;BMP180;5677;48.488;13.436;2022-07-15T13:41:43;97961.00;;;22.20
11240;BMP180;5677;48.488;13.436;2022-07-15T13:44:10;97955.00;;;22.20
11240;BMP180;5677;48.488;13.436;2022-07-15T13:46:37;97959.00;;;22.20
11240;BMP180;5677;48.488;13.436;2022-07-15T13:49:04;97961.00;;;22.30
11240;BMP180;5677;48.488;13.436;2022-07-15T13:51:31;97960.00;;;22.30
11240;BMP180;5677;48.488;13.436;2022-07-15T13:53:59;97951.00;;;22.30
11240;BMP180;5677;48.488;13.436;2022-07-15T13:56:26;97964.00;;;22.30
11240;BMP180;5677;48.488;13.436;2022-07-15T13:58:53;97956.00;;;22.30
11240;BMP180;5677;48.488;13.436;2022-07-15T14:01:25;97953.00;;;22.30
11240;BMP180;5677;48.488;13.436;2022-07-15T14:03:52;97959.00;;;22.30
11240;BMP180;5677;48.488;13.436;2022-07-15T14:06:20;97958.00;;;22.30
11240;BMP180;5677;48.488;13.436;2022-07-15T14:08:47;97952.00;;;22.30
11240;BMP180;5677;48.488;13.436;2022-07-15T14:11:15;97958.00;;;22.30
11240;BMP180;5677;48.488;13.436;2022-07-15T14:13:43;97962.00;;;22.30
11240;BMP180;5677;48.488;13.436;2022-07-15T14:16:10;97962.00;;;22.30
11240;BMP180;5677;48.488;13.436;2022-07-15T14:18:37;97966.00;;;22.30
11240;BMP180;5677;48.488;13.436;2022-07-15T14:21:13;97964.00;;;22.30
11240;BMP180;5677;48.488;13.436;2022-07-15T14:23:41;97958.00;;;22.30